createdAt,value
2023-05-10T00:00:21.634Z,1.33
2023-05-10T00:00:54.033Z,1.80
2023-05-10T00:01:26.411Z,1.47
2023-05-10T00:02:01.968Z,1.50
2023-05-10T00:02:34.363Z,1.50
2023-05-10T00:03:06.971Z,1.10
2023-05-10T00:03:42.123Z,1.20
2023-05-10T00:04:14.784Z,1.17
2023-05-10T00:04:47.284Z,1.20
2023-05-10T00:05:22.416Z,1.30
2023-05-10T00:05:54.758Z,1.37
2023-05-10T00:06:28.034Z,1.27
2023-05-10T00:07:02.999Z,1.50
2023-05-10T00:07:37.908Z,1.20
2023-05-10T00:08:10.284Z,1.40
2023-05-10T00:08:45.323Z,1.10
2023-05-10T00:09:17.972Z,1.10
2023-05-10T00:09:50.269Z,1.30
2023-05-10T00:10:25.249Z,1.20
2023-05-10T00:10:57.562Z,1.10
2023-05-10T00:11:29.872Z,1.70
2023-05-10T00:12:04.782Z,1.50
2023-05-10T00:12:37.087Z,1.20
2023-05-10T00:13:09.443Z,1.20
2023-05-10T00:13:44.454Z,1.20
2023-05-10T00:14:16.757Z,1.10
2023-05-10T00:14:49.273Z,1.20
2023-05-10T00:15:24.342Z,0.93
2023-05-10T00:15:56.789Z,1.07
2023-05-10T00:16:29.302Z,1.30
2023-05-10T00:17:04.289Z,1.30
2023-05-10T00:17:36.708Z,1.20
2023-05-10T00:18:09.185Z,1.37
2023-05-10T00:18:44.286Z,1.17
2023-05-10T00:19:16.619Z,1.10
2023-05-10T00:19:49.357Z,1.00
2023-05-10T00:20:24.265Z,1.30
2023-05-10T00:20:56.580Z,1.33
2023-05-10T00:21:29.619Z,1.00
2023-05-10T00:22:04.582Z,1.17
2023-05-10T00:22:39.555Z,1.00
2023-05-10T00:23:11.923Z,0.97
2023-05-10T00:23:46.924Z,0.90
2023-05-10T00:24:19.257Z,1.07
2023-05-10T00:24:51.577Z,1.00
2023-05-10T00:25:26.509Z,0.90
2023-05-10T00:25:58.986Z,1.00
2023-05-10T00:26:31.303Z,1.10
2023-05-10T00:27:07.129Z,1.07
2023-05-10T00:27:39.429Z,1.30
2023-05-10T00:28:11.779Z,1.30
2023-05-10T00:28:46.686Z,0.80
2023-05-10T00:29:19.008Z,0.97
2023-05-10T00:29:51.343Z,1.27
2023-05-10T00:30:26.376Z,0.80
2023-05-10T00:30:58.697Z,0.93
2023-05-10T00:31:31.123Z,1.07
2023-05-10T00:32:06.295Z,1.00
2023-05-10T00:32:38.743Z,0.70
2023-05-10T00:33:12.724Z,1.00
2023-05-10T00:33:45.187Z,0.80
2023-05-10T00:34:20.111Z,0.70
2023-05-10T00:34:52.682Z,1.10
2023-05-10T00:35:25.521Z,0.90
2023-05-10T00:36:00.441Z,0.77
2023-05-10T00:36:32.754Z,0.80
2023-05-10T00:37:05.069Z,0.90
2023-05-10T00:37:42.573Z,0.87
2023-05-10T00:38:15.489Z,0.97
2023-05-10T00:38:47.824Z,0.80
2023-05-10T00:39:22.761Z,0.80
2023-05-10T00:39:55.644Z,1.10
2023-05-10T00:40:28.333Z,1.07
2023-05-10T00:41:07.766Z,1.00
2023-05-10T00:41:42.447Z,0.87
2023-05-10T00:42:14.885Z,0.90
2023-05-10T00:42:50.291Z,1.10
2023-05-10T00:43:22.601Z,0.83
2023-05-10T00:43:55.002Z,1.03
2023-05-10T00:44:29.951Z,1.00
2023-05-10T00:45:02.561Z,1.20
2023-05-10T00:45:37.676Z,1.17
2023-05-10T00:46:12.639Z,0.80
2023-05-10T00:46:45.041Z,0.80
2023-05-10T00:47:17.878Z,0.87
2023-05-10T00:47:53.383Z,0.63
2023-05-10T00:48:25.920Z,1.10
2023-05-10T00:48:58.391Z,1.07
2023-05-10T00:49:33.732Z,0.80
2023-05-10T00:50:07.869Z,1.00
2023-05-10T00:50:41.231Z,0.93
2023-05-10T00:51:16.606Z,0.80
2023-05-10T00:51:49.158Z,1.00
2023-05-10T00:52:21.570Z,0.90
2023-05-10T00:52:59.352Z,0.87
2023-05-10T00:53:33.275Z,0.73
2023-05-10T00:54:06.518Z,0.83
2023-05-10T00:54:38.874Z,0.90
2023-05-10T00:55:14.254Z,0.80
2023-05-10T00:55:46.625Z,0.97
2023-05-10T00:56:19.651Z,0.70
2023-05-10T00:56:55.282Z,0.80
2023-05-10T00:57:28.039Z,0.80
2023-05-10T00:58:00.424Z,0.80
2023-05-10T00:58:35.502Z,1.00
2023-05-10T00:59:07.881Z,0.97
2023-05-10T00:59:40.225Z,0.70
2023-05-10T01:00:19.249Z,0.73
2023-05-10T01:00:52.229Z,0.80
2023-05-10T01:01:25.069Z,0.70
2023-05-10T01:02:00.927Z,0.70
2023-05-10T01:02:36.043Z,0.83
2023-05-10T01:03:08.530Z,0.80
2023-05-10T01:03:44.190Z,0.80
2023-05-10T01:04:16.927Z,1.00
2023-05-10T01:04:50.419Z,0.70
2023-05-10T01:05:25.897Z,0.73
2023-05-10T01:05:58.288Z,0.80
2023-05-10T01:06:30.741Z,0.70
2023-05-10T01:07:06.061Z,0.80
2023-05-10T01:07:38.459Z,0.80
2023-05-10T01:08:13.440Z,0.70
2023-05-10T01:08:48.583Z,0.87
2023-05-10T01:09:21.160Z,0.83
2023-05-10T01:09:53.559Z,0.70
2023-05-10T01:10:25.989Z,0.80
2023-05-10T01:11:01.206Z,0.77
2023-05-10T01:11:34.605Z,0.80
2023-05-10T01:12:08.522Z,0.77
2023-05-10T01:12:45.131Z,0.90
2023-05-10T01:13:20.160Z,0.77
2023-05-10T01:13:59.684Z,0.70
2023-05-10T01:14:32.390Z,0.80
2023-05-10T01:15:06.729Z,0.83
2023-05-10T01:15:41.929Z,0.70
2023-05-10T01:16:14.867Z,0.90
2023-05-10T01:16:48.254Z,0.80
2023-05-10T01:17:26.187Z,0.70
2023-05-10T01:17:58.590Z,0.80
2023-05-10T01:18:32.693Z,0.70
2023-05-10T01:19:08.499Z,0.70
2023-05-10T01:19:41.127Z,0.60
2023-05-10T01:20:14.301Z,0.60
2023-05-10T01:20:50.033Z,0.90
2023-05-10T01:21:33.363Z,0.70
2023-05-10T01:22:17.370Z,0.60
2023-05-10T01:23:27.282Z,0.60
2023-05-10T01:24:36.357Z,0.80
2023-05-10T01:25:42.213Z,0.90
2023-05-10T01:26:52.817Z,0.83
2023-05-10T01:28:01.058Z,0.63
2023-05-10T01:29:05.313Z,0.87
2023-05-10T01:30:16.150Z,1.10
2023-05-10T01:31:08.158Z,0.60
2023-05-10T01:32:00.372Z,0.80
2023-05-10T01:32:39.570Z,0.83
2023-05-10T01:33:13.011Z,0.70
2023-05-10T01:33:48.995Z,0.80
2023-05-10T01:34:27.800Z,0.70
2023-05-10T01:35:02.425Z,0.97
2023-05-10T01:35:39.073Z,0.57
2023-05-10T01:36:17.299Z,0.60
2023-05-10T01:36:56.375Z,0.50
2023-05-10T01:37:36.222Z,0.60
2023-05-10T01:38:16.281Z,0.60
2023-05-10T01:38:54.436Z,0.70
2023-05-10T01:39:30.522Z,0.57
2023-05-10T01:40:09.836Z,0.80
2023-05-10T01:40:52.595Z,0.57
2023-05-10T01:41:29.694Z,0.67
2023-05-10T01:42:05.529Z,0.50
2023-05-10T01:42:43.250Z,0.60
2023-05-10T01:43:24.288Z,0.80
2023-05-10T01:44:04.837Z,0.70
2023-05-10T01:44:45.190Z,0.70
2023-05-10T01:45:23.579Z,0.50
2023-05-10T01:46:01.736Z,0.60
2023-05-10T01:46:40.064Z,0.70
2023-05-10T01:47:18.707Z,0.70
2023-05-10T01:47:55.909Z,0.50
2023-05-10T01:48:32.634Z,0.50
2023-05-10T01:49:09.795Z,0.60
2023-05-10T01:49:45.107Z,0.60
2023-05-10T01:50:23.062Z,0.60
2023-05-10T01:50:56.457Z,0.60
2023-05-10T01:51:35.819Z,0.60
2023-05-10T01:52:13.590Z,0.70
2023-05-10T01:52:51.562Z,0.60
2023-05-10T01:53:26.210Z,0.70
2023-05-10T01:54:04.602Z,0.60
2023-05-10T01:54:37.449Z,0.50
2023-05-10T01:55:13.602Z,0.57
2023-05-10T01:55:50.749Z,0.50
2023-05-10T01:56:25.818Z,0.70
2023-05-10T01:57:01.837Z,0.60
2023-05-10T01:57:35.742Z,0.60
2023-05-10T01:58:13.126Z,0.50
2023-05-10T01:58:47.316Z,0.60
2023-05-10T01:59:20.948Z,0.73
2023-05-10T01:59:56.464Z,0.50
2023-05-10T02:00:29.352Z,0.70
2023-05-10T02:01:03.170Z,0.50
2023-05-10T02:01:38.606Z,0.60
2023-05-10T02:02:14.487Z,0.50
2023-05-10T02:02:47.996Z,0.70
2023-05-10T02:03:25.303Z,0.47
2023-05-10T02:03:58.881Z,0.60
2023-05-10T02:04:31.640Z,0.60
2023-05-10T02:05:08.324Z,0.60
2023-05-10T02:05:41.246Z,0.63
2023-05-10T02:06:14.663Z,0.60
2023-05-10T02:06:50.619Z,0.60
2023-05-10T02:07:24.017Z,0.60
2023-05-10T02:07:57.452Z,0.50
2023-05-10T02:08:33.110Z,0.80
2023-05-10T02:09:06.898Z,0.57
2023-05-10T02:09:39.802Z,0.50
2023-05-10T02:10:16.007Z,0.57
2023-05-10T02:10:49.141Z,0.50
2023-05-10T02:11:22.679Z,0.50
2023-05-10T02:11:58.259Z,0.60
2023-05-10T02:12:31.425Z,0.83
2023-05-10T02:13:04.573Z,0.50
2023-05-10T02:13:41.376Z,0.50
2023-05-10T02:14:14.599Z,0.80
2023-05-10T02:14:47.385Z,0.50
2023-05-10T02:15:26.216Z,0.40
2023-05-10T02:15:58.858Z,0.57
2023-05-10T02:16:32.155Z,0.67
2023-05-10T02:17:09.590Z,0.53
2023-05-10T02:17:45.064Z,0.50
2023-05-10T02:18:18.531Z,0.50
2023-05-10T02:18:54.693Z,0.50
2023-05-10T02:19:27.783Z,0.47
2023-05-10T02:20:04.872Z,0.67
2023-05-10T02:20:40.580Z,0.50
2023-05-10T02:21:12.923Z,0.50
2023-05-10T02:21:46.127Z,0.50
2023-05-10T02:22:21.437Z,0.50
2023-05-10T02:22:56.068Z,0.50
2023-05-10T02:23:28.606Z,0.60
2023-05-10T02:24:05.153Z,0.40
2023-05-10T02:24:38.220Z,0.50
2023-05-10T02:25:11.281Z,0.50
2023-05-10T02:25:47.388Z,0.50
2023-05-10T02:26:20.247Z,0.50
2023-05-10T02:26:53.086Z,0.50
2023-05-10T02:27:28.828Z,0.50
2023-05-10T02:28:03.426Z,0.60
2023-05-10T02:28:37.224Z,0.40
2023-05-10T02:29:13.557Z,0.50
2023-05-10T02:29:46.121Z,0.40
2023-05-10T02:30:19.661Z,0.60
2023-05-10T02:30:52.383Z,0.57
2023-05-10T02:31:27.512Z,0.40
2023-05-10T02:32:00.542Z,0.50
2023-05-10T02:32:33.103Z,0.60
2023-05-10T02:33:08.791Z,0.53
2023-05-10T02:33:44.055Z,0.50
2023-05-10T02:34:16.797Z,0.50
2023-05-10T02:34:53.123Z,0.60
2023-05-10T02:35:29.095Z,0.40
2023-05-10T02:36:03.089Z,0.50
2023-05-10T02:36:36.254Z,0.43
2023-05-10T02:37:13.785Z,0.40
2023-05-10T02:37:47.071Z,0.40
2023-05-10T02:38:20.685Z,0.40
2023-05-10T02:38:56.675Z,0.50
2023-05-10T02:39:29.910Z,0.50
2023-05-10T02:40:04.485Z,0.40
2023-05-10T02:40:40.121Z,0.40
2023-05-10T02:41:12.857Z,0.47
2023-05-10T02:41:46.747Z,0.40
2023-05-10T02:42:23.667Z,0.53
2023-05-10T02:42:57.396Z,0.50
2023-05-10T02:43:33.954Z,0.40
2023-05-10T02:44:10.865Z,0.40
2023-05-10T02:44:43.670Z,0.53
2023-05-10T02:45:21.106Z,0.50
2023-05-10T02:45:56.308Z,0.50
2023-05-10T02:46:28.720Z,0.47
2023-05-10T02:47:02.103Z,0.40
2023-05-10T02:47:38.367Z,0.50
2023-05-10T02:48:13.618Z,0.50
2023-05-10T02:48:46.078Z,0.47
2023-05-10T02:49:21.050Z,0.50
2023-05-10T02:49:53.652Z,0.40
2023-05-10T02:50:28.066Z,0.50
2023-05-10T02:51:06.962Z,0.40
2023-05-10T02:51:42.955Z,0.40
2023-05-10T02:52:17.627Z,0.50
2023-05-10T02:52:55.721Z,0.40
2023-05-10T02:53:33.008Z,0.40
2023-05-10T02:54:10.716Z,0.50
2023-05-10T02:54:49.538Z,0.40
2023-05-10T02:55:24.016Z,0.43
2023-05-10T02:56:00.460Z,0.50
2023-05-10T02:56:37.545Z,0.40
2023-05-10T02:57:12.905Z,0.40
2023-05-10T02:57:51.185Z,0.40
2023-05-10T02:58:26.580Z,0.40
2023-05-10T02:58:58.957Z,0.40
2023-05-10T02:59:31.321Z,0.40
2023-05-10T03:00:07.147Z,0.40
2023-05-10T03:00:40.116Z,0.40
2023-05-10T03:01:13.749Z,0.57
2023-05-10T03:01:48.826Z,0.40
2023-05-10T03:02:21.929Z,0.40
2023-05-10T03:02:54.497Z,0.50
2023-05-10T03:03:32.244Z,0.60
2023-05-10T03:04:05.363Z,0.50
2023-05-10T03:04:37.848Z,0.40
2023-05-10T03:05:12.961Z,0.50
2023-05-10T03:05:45.427Z,0.50
2023-05-10T03:06:17.824Z,0.50
2023-05-10T03:06:52.849Z,0.40
2023-05-10T03:07:25.338Z,0.40
2023-05-10T03:07:57.799Z,0.40
2023-05-10T03:08:33.182Z,0.40
2023-05-10T03:09:05.685Z,0.30
2023-05-10T03:09:38.094Z,0.40
2023-05-10T03:10:14.213Z,0.40
2023-05-10T03:10:56.058Z,0.40
2023-05-10T03:11:43.020Z,0.40
2023-05-10T03:12:23.912Z,0.40
2023-05-10T03:13:07.966Z,0.40
2023-05-10T03:13:47.181Z,0.40
2023-05-10T03:14:31.755Z,0.40
2023-05-10T03:15:11.673Z,0.43
2023-05-10T03:15:49.794Z,0.40
2023-05-10T03:16:29.404Z,0.40
2023-05-10T03:17:08.528Z,0.37
2023-05-10T03:17:50.782Z,0.40
2023-05-10T03:18:24.630Z,0.40
2023-05-10T03:19:05.810Z,0.40
2023-05-10T03:19:46.493Z,0.40
2023-05-10T03:20:27.553Z,0.40
2023-05-10T03:21:03.947Z,0.40
2023-05-10T03:21:42.289Z,0.40
2023-05-10T03:22:18.325Z,0.40
2023-05-10T03:22:53.954Z,0.40
2023-05-10T03:23:31.479Z,0.40
2023-05-10T03:24:08.552Z,0.40
2023-05-10T03:24:42.923Z,0.40
2023-05-10T03:25:19.702Z,0.37
2023-05-10T03:25:53.565Z,0.40
2023-05-10T03:26:30.837Z,0.40
2023-05-10T03:27:11.881Z,0.43
2023-05-10T03:27:45.393Z,0.40
2023-05-10T03:28:22.232Z,0.40
2023-05-10T03:28:55.273Z,0.60
2023-05-10T03:29:27.836Z,0.60
2023-05-10T03:30:03.090Z,0.40
2023-05-10T03:30:38.845Z,0.40
2023-05-10T03:31:12.626Z,0.40
2023-05-10T03:31:49.358Z,0.50
2023-05-10T03:32:21.937Z,0.47
2023-05-10T03:32:54.395Z,0.40
2023-05-10T03:33:29.366Z,0.40
2023-05-10T03:34:05.345Z,0.40
2023-05-10T03:34:42.943Z,0.40
2023-05-10T03:35:18.232Z,0.43
2023-05-10T03:35:50.834Z,0.40
2023-05-10T03:36:25.792Z,0.40
2023-05-10T03:36:58.178Z,0.57
2023-05-10T03:37:31.981Z,0.60
2023-05-10T03:38:07.225Z,0.47
2023-05-10T03:38:39.639Z,0.50
2023-05-10T03:39:12.110Z,0.40
2023-05-10T03:39:47.199Z,0.50
2023-05-10T03:40:19.835Z,0.50
2023-05-10T03:40:53.109Z,0.40
2023-05-10T03:41:28.384Z,0.40
2023-05-10T03:42:01.750Z,0.40
2023-05-10T03:42:36.263Z,0.40
2023-05-10T03:43:11.307Z,0.40
2023-05-10T03:43:43.714Z,0.40
2023-05-10T03:44:16.053Z,0.40
2023-05-10T03:44:51.164Z,0.40
2023-05-10T03:45:23.564Z,0.40
2023-05-10T03:45:55.959Z,0.40
2023-05-10T03:46:30.905Z,0.33
2023-05-10T03:47:03.400Z,0.40
2023-05-10T03:47:36.324Z,0.40
2023-05-10T03:48:11.732Z,0.40
2023-05-10T03:48:45.092Z,0.40
2023-05-10T03:49:20.051Z,0.37
2023-05-10T03:49:55.159Z,0.50
2023-05-10T03:50:27.588Z,0.40
2023-05-10T03:50:59.960Z,0.40
2023-05-10T03:51:34.899Z,0.37
2023-05-10T03:52:07.721Z,0.40
2023-05-10T03:52:40.980Z,0.40
2023-05-10T03:53:16.270Z,0.40
2023-05-10T03:53:48.598Z,0.40
2023-05-10T03:54:21.440Z,0.40
2023-05-10T03:54:56.395Z,0.40
2023-05-10T03:55:30.653Z,0.40
2023-05-10T03:56:03.398Z,0.40
2023-05-10T03:56:38.354Z,0.40
2023-05-10T03:57:10.811Z,0.33
2023-05-10T03:57:43.396Z,0.40
2023-05-10T03:58:18.440Z,0.40
2023-05-10T03:58:50.890Z,0.40
2023-05-10T03:59:23.475Z,0.40
2023-05-10T04:00:00.201Z,0.40
2023-05-10T04:00:33.682Z,0.30
2023-05-10T04:01:06.309Z,0.40
2023-05-10T04:01:41.347Z,0.40
2023-05-10T04:02:15.260Z,0.30
2023-05-10T04:02:47.591Z,0.40
2023-05-10T04:03:27.600Z,0.40
2023-05-10T04:04:00.097Z,0.40
2023-05-10T04:04:35.062Z,0.40
2023-05-10T04:05:11.282Z,0.47
2023-05-10T04:05:43.642Z,0.40
2023-05-10T04:06:16.020Z,0.40
2023-05-10T04:06:51.029Z,0.40
2023-05-10T04:07:23.462Z,0.40
2023-05-10T04:07:56.041Z,0.30
2023-05-10T04:08:31.955Z,0.40
2023-05-10T04:09:05.572Z,0.40
2023-05-10T04:09:37.927Z,0.40
2023-05-10T04:10:13.322Z,0.40
2023-05-10T04:10:45.684Z,0.40
2023-05-10T04:11:18.017Z,0.40
2023-05-10T04:11:52.997Z,0.40
2023-05-10T04:12:25.578Z,0.50
2023-05-10T04:12:57.926Z,0.60
2023-05-10T04:13:30.268Z,0.40
2023-05-10T04:14:05.171Z,0.40
2023-05-10T04:14:38.421Z,0.40
2023-05-10T04:15:11.326Z,0.40
2023-05-10T04:15:46.292Z,0.50
2023-05-10T04:16:18.685Z,0.40
2023-05-10T04:16:51.062Z,0.40
2023-05-10T04:17:26.137Z,0.40
2023-05-10T04:17:58.548Z,0.37
2023-05-10T04:18:31.009Z,0.40
2023-05-10T04:19:05.923Z,0.40
2023-05-10T04:19:40.825Z,0.40
2023-05-10T04:20:13.994Z,0.40
2023-05-10T04:20:49.044Z,0.40
2023-05-10T04:21:21.366Z,0.40
2023-05-10T04:21:53.691Z,0.40
2023-05-10T04:22:29.032Z,0.40
2023-05-10T04:23:01.423Z,0.50
2023-05-10T04:23:33.744Z,0.40
2023-05-10T04:24:09.321Z,0.70
2023-05-10T04:24:41.638Z,0.40
2023-05-10T04:25:14.096Z,0.30
2023-05-10T04:25:46.437Z,0.40
2023-05-10T04:26:21.371Z,0.40
2023-05-10T04:26:54.668Z,0.40
2023-05-10T04:27:28.294Z,0.50
2023-05-10T04:28:03.186Z,0.40
2023-05-10T04:28:35.989Z,0.40
2023-05-10T04:29:08.340Z,0.40
2023-05-10T04:29:43.247Z,0.40
2023-05-10T04:30:16.131Z,0.40
2023-05-10T04:30:48.669Z,0.40
2023-05-10T04:31:23.964Z,0.40
2023-05-10T04:31:56.481Z,0.40
2023-05-10T04:32:29.310Z,0.40
2023-05-10T04:33:04.642Z,0.57
2023-05-10T04:33:37.482Z,0.40
2023-05-10T04:34:09.830Z,0.40
2023-05-10T04:34:47.410Z,0.40
2023-05-10T04:35:19.706Z,0.50
2023-05-10T04:35:52.052Z,0.40
2023-05-10T04:36:24.450Z,0.40
2023-05-10T04:36:59.391Z,0.40
2023-05-10T04:37:31.744Z,0.40
2023-05-10T04:38:04.078Z,0.40
2023-05-10T04:38:39.001Z,0.40
2023-05-10T04:39:11.732Z,0.40
2023-05-10T04:39:44.053Z,0.40
2023-05-10T04:40:19.302Z,0.37
2023-05-10T04:40:51.811Z,0.43
2023-05-10T04:41:24.169Z,0.30
2023-05-10T04:41:59.089Z,0.40
2023-05-10T04:42:31.462Z,0.40
2023-05-10T04:43:03.865Z,0.50
2023-05-10T04:43:39.764Z,0.50
2023-05-10T04:44:12.111Z,0.40
2023-05-10T04:44:47.041Z,0.40
2023-05-10T04:45:19.566Z,0.77
2023-05-10T04:45:51.995Z,0.50
2023-05-10T04:46:27.071Z,0.40
2023-05-10T04:46:59.520Z,0.43
2023-05-10T04:47:34.460Z,0.40
2023-05-10T04:48:07.329Z,0.40
2023-05-10T04:48:39.630Z,0.37
2023-05-10T04:49:15.543Z,0.40
2023-05-10T04:49:50.462Z,0.50
2023-05-10T04:50:22.769Z,0.40
2023-05-10T04:50:57.733Z,0.43
2023-05-10T04:51:30.176Z,0.40
2023-05-10T04:52:02.523Z,0.40
2023-05-10T04:52:37.637Z,0.40
2023-05-10T04:53:10.024Z,0.40
2023-05-10T04:53:46.486Z,0.40
2023-05-10T04:54:26.167Z,0.50
2023-05-10T04:54:58.487Z,0.40
2023-05-10T04:55:30.798Z,0.40
2023-05-10T04:56:05.806Z,0.40
2023-05-10T04:56:38.147Z,0.40
2023-05-10T04:57:10.445Z,0.40
2023-05-10T04:57:46.157Z,0.40
2023-05-10T04:58:18.492Z,0.40
2023-05-10T04:58:53.517Z,0.50
2023-05-10T04:59:25.949Z,0.40
2023-05-10T05:00:00.856Z,0.40
2023-05-10T05:00:34.500Z,0.40
2023-05-10T05:01:08.041Z,0.40
2023-05-10T05:01:43.745Z,0.40
2023-05-10T05:02:16.114Z,0.50
2023-05-10T05:02:48.528Z,0.40
2023-05-10T05:03:23.688Z,0.40
2023-05-10T05:03:56.237Z,0.50
2023-05-10T05:04:28.691Z,0.40
2023-05-10T05:05:06.305Z,0.40
2023-05-10T05:05:38.600Z,0.60
2023-05-10T05:06:10.961Z,0.43
2023-05-10T05:06:45.888Z,0.40
2023-05-10T05:07:18.240Z,0.40
2023-05-10T05:07:50.553Z,0.43
2023-05-10T05:08:22.870Z,0.40
2023-05-10T05:08:57.907Z,0.40
2023-05-10T05:09:30.291Z,0.50
2023-05-10T05:10:02.604Z,0.40
2023-05-10T05:10:38.937Z,0.40
2023-05-10T05:11:11.246Z,0.40
2023-05-10T05:11:43.533Z,0.40
2023-05-10T05:12:18.508Z,0.40
2023-05-10T05:12:50.908Z,0.40
2023-05-10T05:13:23.380Z,0.40
2023-05-10T05:14:00.300Z,0.40
2023-05-10T05:14:32.730Z,0.40
2023-05-10T05:15:07.293Z,0.40
2023-05-10T05:15:43.987Z,0.50
2023-05-10T05:16:16.429Z,0.60
2023-05-10T05:16:48.865Z,0.40
2023-05-10T05:17:23.812Z,0.40
2023-05-10T05:17:56.166Z,0.50
2023-05-10T05:18:28.550Z,0.50
2023-05-10T05:19:04.771Z,0.40
2023-05-10T05:19:37.089Z,0.40
2023-05-10T05:20:12.766Z,0.40
2023-05-10T05:20:45.114Z,0.40
2023-05-10T05:21:20.120Z,0.47
2023-05-10T05:21:52.431Z,0.40
2023-05-10T05:22:28.592Z,0.40
2023-05-10T05:23:03.669Z,0.50
2023-05-10T05:23:36.001Z,0.50
2023-05-10T05:24:12.488Z,0.50
2023-05-10T05:24:46.166Z,0.40
2023-05-10T05:25:18.484Z,0.40
2023-05-10T05:25:53.434Z,0.40
2023-05-10T05:26:25.756Z,0.40
2023-05-10T05:27:00.661Z,0.40
2023-05-10T05:27:33.273Z,0.50
2023-05-10T05:28:05.804Z,0.40
2023-05-10T05:28:41.015Z,0.40
2023-05-10T05:29:13.335Z,0.40
2023-05-10T05:29:45.628Z,0.40
2023-05-10T05:30:20.580Z,0.40
2023-05-10T05:30:53.409Z,0.60
2023-05-10T05:31:28.374Z,0.40
2023-05-10T05:32:00.868Z,0.40
2023-05-10T05:32:33.271Z,0.40
2023-05-10T05:33:08.264Z,0.50
2023-05-10T05:33:40.689Z,0.40
2023-05-10T05:34:13.160Z,0.40
2023-05-10T05:34:49.068Z,0.40
2023-05-10T05:35:25.821Z,0.40
2023-05-10T05:35:58.153Z,0.40
2023-05-10T05:36:33.687Z,0.40
2023-05-10T05:37:07.025Z,0.40
2023-05-10T05:37:39.359Z,0.43
2023-05-10T05:38:14.327Z,0.40
2023-05-10T05:38:46.702Z,0.40
2023-05-10T05:39:19.015Z,0.40
2023-05-10T05:39:55.620Z,0.40
2023-05-10T05:40:27.947Z,0.40
2023-05-10T05:41:00.327Z,0.40
2023-05-10T05:41:35.218Z,0.40
2023-05-10T05:42:07.611Z,0.40
2023-05-10T05:42:42.616Z,0.30
2023-05-10T05:43:14.976Z,0.50
2023-05-10T05:43:47.345Z,0.50
2023-05-10T05:44:22.272Z,0.40
2023-05-10T05:44:54.596Z,0.50
2023-05-10T05:45:26.906Z,0.47
2023-05-10T05:46:01.926Z,0.40
2023-05-10T05:46:34.296Z,0.40
2023-05-10T05:47:07.233Z,0.43
2023-05-10T05:47:42.223Z,0.50
2023-05-10T05:48:14.681Z,0.40
2023-05-10T05:48:47.052Z,0.40
2023-05-10T05:49:21.958Z,0.47
2023-05-10T05:49:54.285Z,0.40
2023-05-10T05:50:29.315Z,0.50
2023-05-10T05:51:05.869Z,0.50
2023-05-10T05:51:39.565Z,0.40
2023-05-10T05:52:11.870Z,0.50
2023-05-10T05:52:46.885Z,0.47
2023-05-10T05:53:19.234Z,0.50
2023-05-10T05:53:51.591Z,0.40
2023-05-10T05:54:26.505Z,0.40
2023-05-10T05:54:58.813Z,0.40
2023-05-10T05:55:32.655Z,0.40
2023-05-10T05:56:09.255Z,0.50
2023-05-10T05:56:41.611Z,0.40
2023-05-10T05:57:14.284Z,0.50
2023-05-10T05:57:49.186Z,0.40
2023-05-10T05:58:21.695Z,0.50
2023-05-10T05:58:54.152Z,0.60
2023-05-10T05:59:29.089Z,0.50
2023-05-10T06:00:01.466Z,0.50
2023-05-10T06:00:36.429Z,0.40
2023-05-10T06:01:08.867Z,0.40
2023-05-10T06:01:43.830Z,0.50
2023-05-10T06:02:16.373Z,0.50
2023-05-10T06:02:49.355Z,0.40
2023-05-10T06:03:24.514Z,0.40
2023-05-10T06:03:56.963Z,0.50
2023-05-10T06:04:29.569Z,0.40
2023-05-10T06:05:04.620Z,0.50
2023-05-10T06:05:39.532Z,0.50
2023-05-10T06:06:14.595Z,0.50
2023-05-10T06:06:47.084Z,0.50
2023-05-10T06:07:19.517Z,0.50
2023-05-10T06:07:54.432Z,0.50
2023-05-10T06:08:26.962Z,0.40
2023-05-10T06:08:59.441Z,0.50
2023-05-10T06:09:34.359Z,0.63
2023-05-10T06:10:08.298Z,0.53
2023-05-10T06:10:40.786Z,0.50
2023-05-10T06:11:15.880Z,0.50
2023-05-10T06:11:48.310Z,0.60
2023-05-10T06:12:20.627Z,0.40
2023-05-10T06:12:55.552Z,0.50
2023-05-10T06:13:33.270Z,0.40
2023-05-10T06:14:09.115Z,0.50
2023-05-10T06:14:41.459Z,0.60
2023-05-10T06:15:16.603Z,0.50
2023-05-10T06:15:49.056Z,0.57
2023-05-10T06:16:24.033Z,0.40
2023-05-10T06:16:56.493Z,0.60
2023-05-10T06:17:28.986Z,0.53
2023-05-10T06:18:04.040Z,0.60
2023-05-10T06:18:36.497Z,0.50
2023-05-10T06:19:11.626Z,0.60
2023-05-10T06:19:43.974Z,0.50
2023-05-10T06:20:16.769Z,0.40
2023-05-10T06:20:54.387Z,0.60
2023-05-10T06:21:26.908Z,0.60
2023-05-10T06:21:59.414Z,0.40
2023-05-10T06:22:34.349Z,0.60
2023-05-10T06:23:06.664Z,0.50
2023-05-10T06:23:38.969Z,0.50
2023-05-10T06:24:13.897Z,0.50
2023-05-10T06:24:46.247Z,0.60
2023-05-10T06:25:21.724Z,0.60
2023-05-10T06:25:54.101Z,0.60
2023-05-10T06:26:29.044Z,0.57
2023-05-10T06:27:01.611Z,0.50
2023-05-10T06:27:33.970Z,0.50
2023-05-10T06:28:08.874Z,0.60
2023-05-10T06:28:41.327Z,0.50
2023-05-10T06:29:16.457Z,0.50
2023-05-10T06:29:50.526Z,0.40
2023-05-10T06:30:30.312Z,0.50
2023-05-10T06:31:03.039Z,0.63
2023-05-10T06:31:38.050Z,0.60
2023-05-10T06:32:10.369Z,0.70
2023-05-10T06:32:46.346Z,0.50
2023-05-10T06:33:18.708Z,0.50
2023-05-10T06:33:55.375Z,0.60
2023-05-10T06:34:29.002Z,0.50
2023-05-10T06:35:01.914Z,0.50
2023-05-10T06:35:38.027Z,0.50
2023-05-10T06:36:12.967Z,0.60
2023-05-10T06:36:45.429Z,0.60
2023-05-10T06:37:20.339Z,0.60
2023-05-10T06:37:52.683Z,0.50
2023-05-10T06:38:27.710Z,0.50
2023-05-10T06:39:00.008Z,0.70
2023-05-10T06:39:34.950Z,0.40
2023-05-10T06:40:08.906Z,0.63
2023-05-10T06:40:45.522Z,0.60
2023-05-10T06:41:17.835Z,0.70
2023-05-10T06:41:52.777Z,0.60
2023-05-10T06:42:26.608Z,0.60
2023-05-10T06:42:58.935Z,0.50
2023-05-10T06:43:33.869Z,0.50
2023-05-10T06:44:06.247Z,0.60
2023-05-10T06:44:38.554Z,0.70
2023-05-10T06:45:14.665Z,0.60
2023-05-10T06:45:47.333Z,0.60
2023-05-10T06:46:22.356Z,0.63
2023-05-10T06:46:56.449Z,0.60
2023-05-10T06:47:28.899Z,0.50
2023-05-10T06:48:03.948Z,0.73
2023-05-10T06:48:36.323Z,0.50
2023-05-10T06:49:11.318Z,0.70
2023-05-10T06:49:43.690Z,0.57
2023-05-10T06:50:16.317Z,0.60
2023-05-10T06:50:51.232Z,0.67
2023-05-10T06:51:26.161Z,0.50
2023-05-10T06:51:58.512Z,0.53
2023-05-10T06:52:33.451Z,0.70
2023-05-10T06:53:05.759Z,0.50
2023-05-10T06:53:40.776Z,0.77
2023-05-10T06:54:13.106Z,0.70
2023-05-10T06:54:45.619Z,0.90
2023-05-10T06:55:20.795Z,0.60
2023-05-10T06:55:53.269Z,0.60
2023-05-10T06:56:28.352Z,0.50
2023-05-10T06:57:01.929Z,0.50
2023-05-10T06:57:38.582Z,0.57
2023-05-10T06:58:10.925Z,0.50
2023-05-10T06:58:43.238Z,0.70
2023-05-10T06:59:20.461Z,0.70
2023-05-10T06:59:53.334Z,0.80
2023-05-10T07:00:28.492Z,0.60
2023-05-10T07:01:04.214Z,0.70
2023-05-10T07:01:39.264Z,0.70
2023-05-10T07:02:11.899Z,0.60
2023-05-10T07:02:46.912Z,0.63
2023-05-10T07:03:19.325Z,0.60
2023-05-10T07:03:54.296Z,0.83
2023-05-10T07:04:26.637Z,0.63
2023-05-10T07:05:03.128Z,0.60
2023-05-10T07:05:35.876Z,0.50
2023-05-10T07:06:21.782Z,0.80
2023-05-10T07:07:04.832Z,0.50
2023-05-10T07:07:39.804Z,0.60
2023-05-10T07:08:12.128Z,0.70
2023-05-10T07:08:44.441Z,0.70
2023-05-10T07:09:19.706Z,0.80
2023-05-10T07:09:52.417Z,0.57
2023-05-10T07:10:27.787Z,0.63
2023-05-10T07:11:04.622Z,0.70
2023-05-10T07:11:39.681Z,0.60
2023-05-10T07:12:14.709Z,0.70
2023-05-10T07:12:50.461Z,0.80
2023-05-10T07:13:22.947Z,0.60
2023-05-10T07:13:58.109Z,0.70
2023-05-10T07:14:30.645Z,0.60
2023-05-10T07:15:02.964Z,0.60
2023-05-10T07:15:37.870Z,0.73
2023-05-10T07:16:10.193Z,0.50
2023-05-10T07:16:42.532Z,0.63
2023-05-10T07:17:17.617Z,0.60
2023-05-10T07:17:50.060Z,0.60
2023-05-10T07:18:25.133Z,0.70
2023-05-10T07:18:57.462Z,0.87
2023-05-10T07:19:33.833Z,0.60
2023-05-10T07:20:07.970Z,0.70
2023-05-10T07:20:42.906Z,0.60
2023-05-10T07:21:15.388Z,0.60
2023-05-10T07:21:47.715Z,0.70
2023-05-10T07:22:25.262Z,0.93
2023-05-10T07:22:57.646Z,0.67
2023-05-10T07:23:30.716Z,0.70
2023-05-10T07:24:05.629Z,0.70
2023-05-10T07:24:37.943Z,0.80
2023-05-10T07:25:10.811Z,0.60
2023-05-10T07:25:46.095Z,0.80
2023-05-10T07:26:18.409Z,0.60
2023-05-10T07:26:50.699Z,0.60
2023-05-10T07:27:25.667Z,0.63
2023-05-10T07:27:58.003Z,0.50
2023-05-10T07:28:30.342Z,0.70
2023-05-10T07:29:05.246Z,0.90
2023-05-10T07:29:38.603Z,0.70
2023-05-10T07:30:14.774Z,0.60
2023-05-10T07:30:47.667Z,0.60
2023-05-10T07:31:20.026Z,0.70
2023-05-10T07:31:55.955Z,0.50
2023-05-10T07:32:30.361Z,0.57
2023-05-10T07:33:02.772Z,0.70
2023-05-10T07:33:37.758Z,0.70
2023-05-10T07:34:10.471Z,0.70
2023-05-10T07:34:42.831Z,0.53
2023-05-10T07:35:18.085Z,0.83
2023-05-10T07:35:51.834Z,0.70
2023-05-10T07:36:26.779Z,0.50
2023-05-10T07:36:59.809Z,0.70
2023-05-10T07:37:37.323Z,0.60
2023-05-10T07:38:09.706Z,0.50
2023-05-10T07:38:44.651Z,0.60
2023-05-10T07:39:26.543Z,0.67
2023-05-10T07:40:02.442Z,0.60
2023-05-10T07:40:34.801Z,0.80
2023-05-10T07:41:09.782Z,0.70
2023-05-10T07:41:42.239Z,0.70